Observation data for Wolfforth on 08/06/2020      Previous  Date       Current Mesonet Observations  Soil Data  Daily Summary Page  Observations in Plain Language
KWOS 060500Z 11006KT 26/16 A3001 RMK A01 T02610161  RH  057%=      5-min Rain = 0
KWOS 060505Z 10006KT 26/16 A3001 RMK A01 T02600161  RH  057%=      5-min Rain = 0
KWOS 060510Z 11006KT 26/16 A3001 RMK A01 T02600159  RH  056%=      5-min Rain = 0
KWOS 060515Z 11007KT 26/16 A3001 RMK A01 T02600158  RH  056%=      5-min Rain = 0
KWOS 060520Z 11008KT 26/16 A3001 RMK A01 T02610157  RH  055%=      5-min Rain = 0
KWOS 060525Z 11008KT 26/16 A3001 RMK A01 T02610158  RH  056%=      5-min Rain = 0
KWOS 060530Z 11007KT 26/16 A3001 RMK A01 T02600157  RH  056%=      5-min Rain = 0
KWOS 060535Z 11007KT 26/16 A3001 RMK A01 T02590157  RH  056%=      5-min Rain = 0
KWOS 060540Z 12006KT 26/16 A3001 RMK A01 T02560156  RH  057%=      5-min Rain = 0
KWOS 060545Z 11006KT 25/16 A3001 RMK A01 T02540156  RH  057%=      5-min Rain = 0
KWOS 060550Z 12006KT 25/16 A3001 RMK A01 T02530156  RH  058%=      5-min Rain = 0
KWOS 060555Z 12006KT 25/16 A3001 RMK A01 T02510156  RH  058%=      5-min Rain = 0
KWOS 060600Z 12006KT 25/16 A3001 RMK A01 T02490155  RH  058%=      5-min Rain = 0
KWOS 060605Z 12006KT 25/15 A3001 RMK A01 T02480153  RH  058%=      5-min Rain = 0
KWOS 060610Z 13006KT 25/15 A3001 RMK A01 T02480150  RH  057%=      5-min Rain = 0
KWOS 060615Z 14005KT 25/15 A30 RMK A01 T02490146  RH  055%=      5-min Rain = 0
KWOS 060620Z 14006KT 25/14 A30 RMK A01 T02500143  RH  054%=      5-min Rain = 0
KWOS 060625Z 14006KT 25/14 A30 RMK A01 T02500141  RH  053%=      5-min Rain = 0
KWOS 060630Z 14006KT 25/14 A30 RMK A01 T02490139  RH  052%=      5-min Rain = 0
KWOS 060635Z 15005KT 25/14 A30 RMK A01 T02490137  RH  052%=      5-min Rain = 0
KWOS 060640Z 16006KT 25/13 A30 RMK A01 T02510134  RH  050%=      5-min Rain = 0
KWOS 060645Z 16006KT 25/13 A30 RMK A01 T02520131  RH  049%=      5-min Rain = 0
KWOS 060650Z 17005KT 25/13 A30 RMK A01 T02530129  RH  048%=      5-min Rain = 0
KWOS 060655Z 17005KT 25/13 A3001 RMK A01 T02520128  RH  048%=      5-min Rain = 0
KWOS 060700Z 18005KT 25/13 A3001 RMK A01 T02500127  RH  048%=      5-min Rain = 0
KWOS 060705Z 18005KT 25/13 A3001 RMK A01 T02500127  RH  048%=      5-min Rain = 0
KWOS 060710Z 18005KT 25/13 A3001 RMK A01 T02480126  RH  048%=      5-min Rain = 0
KWOS 060715Z 18005KT 25/13 A3001 RMK A01 T02470126  RH  049%=      5-min Rain = 0
KWOS 060720Z 18005KT 25/12 A30 RMK A01 T02470124  RH  048%=      5-min Rain = 0
KWOS 060725Z 17006KT 25/12 A30 RMK A01 T02480123  RH  047%=      5-min Rain = 0
KWOS 060730Z 17006KT 25/12 A30 RMK A01 T02470124  RH  048%=      5-min Rain = 0
KWOS 060735Z 17006KT 25/12 A30 RMK A01 T02460124  RH  048%=      5-min Rain = 0
KWOS 060740Z 17006KT 25/12 A30 RMK A01 T02450124  RH  049%=      5-min Rain = 0
KWOS 060745Z 16006KT 24/13 A30 RMK A01 T02430125  RH  050%=      5-min Rain = 0
KWOS 060750Z 16006KT 24/13 A30 RMK A01 T02420125  RH  050%=      5-min Rain = 0
KWOS 060755Z 17006KT 24/12 A30 RMK A01 T02420123  RH  049%=      5-min Rain = 0
KWOS 060800Z 17007KT 24/13 A30 RMK A01 T02400125  RH  050%=      5-min Rain = 0
KWOS 060805Z 17007KT 24/12 A30 RMK A01 T02390124  RH  050%=      5-min Rain = 0
KWOS 060810Z 17007KT 24/12 A30 RMK A01 T02400124  RH  050%=      5-min Rain = 0
KWOS 060815Z 17007KT 24/13 A30 RMK A01 T02390125  RH  051%=      5-min Rain = 0
KWOS 060820Z 17006KT 24/13 A30 RMK A01 T02380126  RH  051%=      5-min Rain = 0
KWOS 060825Z 18005KT 24/13 A30 RMK A01 T02350128  RH  053%=      5-min Rain = 0
KWOS 060830Z 18004KT 23/13 A3001 RMK A01 T02330129  RH  054%=      5-min Rain = 0
KWOS 060835Z 18004KT 23/13 A3001 RMK A01 T02330129  RH  054%=      5-min Rain = 0
KWOS 060840Z 19005KT 23/13 A3001 RMK A01 T02340128  RH  053%=      5-min Rain = 0
KWOS 060845Z 19006KT 24/13 A3001 RMK A01 T02360128  RH  052%=      5-min Rain = 0
KWOS 060850Z 19006KT 24/13 A3001 RMK A01 T02370128  RH  052%=      5-min Rain = 0
KWOS 060855Z 19006KT 24/13 A3001 RMK A01 T02390126  RH  051%=      5-min Rain = 0
KWOS 060900Z 19007KT 24/13 A3001 RMK A01 T02410126  RH  050%=      5-min Rain = 0
KWOS 060905Z 19007KT 24/13 A30 RMK A01 T02410126  RH  050%=      5-min Rain = 0
KWOS 060910Z 19007KT 24/13 A30 RMK A01 T02400126  RH  051%=      5-min Rain = 0
KWOS 060915Z 19006KT 24/13 A30 RMK A01 T02390127  RH  051%=      5-min Rain = 0
KWOS 060920Z 19006KT 24/13 A30 RMK A01 T02380128  RH  052%=      5-min Rain = 0
KWOS 060925Z 19005KT 24/13 A3001 RMK A01 T02360129  RH  053%=      5-min Rain = 0
KWOS 060930Z 19005KT 24/13 A3001 RMK A01 T02350129  RH  053%=      5-min Rain = 0
KWOS 060935Z 20006KT 24/13 A3001 RMK A01 T02350130  RH  054%=      5-min Rain = 0
KWOS 060940Z 20007KT 24/13 A3001 RMK A01 T02360130  RH  054%=      5-min Rain = 0
KWOS 060945Z 21008KT 24/13 A3001 RMK A01 T02360129  RH  053%=      5-min Rain = 0
KWOS 060950Z 21008KT 24/13 A3001 RMK A01 T02370130  RH  053%=      5-min Rain = 0
KWOS 060955Z 21008KT 24/13 A3001 RMK A01 T02380130  RH  053%=      5-min Rain = 0
KWOS 061000Z 21008KT 24/13 A3001 RMK A01 T02390130  RH  052%=      5-min Rain = 0
KWOS 061005Z 21008KT 24/13 A3001 RMK A01 T02380131  RH  053%=      5-min Rain = 0
KWOS 061010Z 21008KT 24/13 A3001 RMK A01 T02370131  RH  054%=      5-min Rain = 0
KWOS 061015Z 21008KT 24/13 A3001 RMK A01 T02370131  RH  054%=      5-min Rain = 0
KWOS 061020Z 20009KT 24/13 A3001 RMK A01 T02380132  RH  054%=      5-min Rain = 0
KWOS 061025Z 20008KT 24/13 A3001 RMK A01 T02380132  RH  054%=      5-min Rain = 0
KWOS 061030Z 20008KT 24/13 A3001 RMK A01 T02390133  RH  054%=      5-min Rain = 0
KWOS 061035Z 20009KT 24/13 A3001 RMK A01 T02390133  RH  054%=      5-min Rain = 0
KWOS 061040Z 20009KT 24/13 A3001 RMK A01 T02400133  RH  053%=      5-min Rain = 0
KWOS 061045Z 19008KT 24/13 A3001 RMK A01 T02400134  RH  054%=      5-min Rain = 0
KWOS 061050Z 19007KT 24/14 A3001 RMK A01 T02390135  RH  054%=      5-min Rain = 0
KWOS 061055Z 19008KT 24/14 A3001 RMK A01 T02390135  RH  054%=      5-min Rain = 0
KWOS 061100Z 19008KT 24/14 A3001 RMK A01 T02380135  RH  055%=      5-min Rain = 0
KWOS 061105Z 19008KT 24/14 A3001 RMK A01 T02380136  RH  055%=      5-min Rain = 0
KWOS 061110Z 19007KT 24/14 A3001 RMK A01 T02370136  RH  055%=      5-min Rain = 0
KWOS 061115Z 19007KT 24/14 A3001 RMK A01 T02370137  RH  056%=      5-min Rain = 0
KWOS 061120Z 19007KT 24/14 A3001 RMK A01 T02360137  RH  056%=      5-min Rain = 0
KWOS 061125Z 18006KT 24/14 A3001 RMK A01 T02350138  RH  057%=      5-min Rain = 0
KWOS 061130Z 19006KT 24/14 A3002 RMK A01 T02350138  RH  057%=      5-min Rain = 0
KWOS 061135Z 19006KT 23/14 A3002 RMK A01 T02340139  RH  057%=      5-min Rain = 0
KWOS 061140Z 19007KT 23/14 A3002 RMK A01 T02340139  RH  057%=      5-min Rain = 0
KWOS 061145Z 19008KT 24/14 A3002 RMK A01 T02350140  RH  057%=      5-min Rain = 0
KWOS 061150Z 19008KT 24/14 A3002 RMK A01 T02350140  RH  058%=      5-min Rain = 0
KWOS 061155Z 19008KT 24/14 A3003 RMK A01 T02350141  RH  058%=      5-min Rain = 0
KWOS 061200Z 19007KT 23/14 A3003 RMK A01 T02340141  RH  058%=      5-min Rain = 0
KWOS 061205Z 19007KT 23/14 A3003 RMK A01 T02340142  RH  059%=      5-min Rain = 0
KWOS 061210Z 19007KT 23/14 A3003 RMK A01 T02340142  RH  059%=      5-min Rain = 0
KWOS 061215Z 19006KT 23/14 A3004 RMK A01 T02330143  RH  059%=      5-min Rain = 0
KWOS 061220Z 18007KT 23/14 A3004 RMK A01 T02320143  RH  060%=      5-min Rain = 0
KWOS 061225Z 18007KT 23/14 A3004 RMK A01 T02320143  RH  060%=      5-min Rain = 0
KWOS 061230Z 18006KT 23/14 A3004 RMK A01 T02320143  RH  060%=      5-min Rain = 0
KWOS 061235Z 19006KT 23/14 A3004 RMK A01 T02320144  RH  060%=      5-min Rain = 0
KWOS 061240Z 19005KT 23/14 A3004 RMK A01 T02310144  RH  061%=      5-min Rain = 0
KWOS 061245Z 19005KT 23/15 A3004 RMK A01 T02310145  RH  061%=      5-min Rain = 0
KWOS 061250Z 19004KT 23/15 A3004 RMK A01 T02320146  RH  061%=      5-min Rain = 0
KWOS 061255Z 19005KT 23/15 A3005 RMK A01 T02320146  RH  061%=      5-min Rain = 0
KWOS 061300Z 19005KT 23/15 A3005 RMK A01 T02340147  RH  061%=      5-min Rain = 0
KWOS 061305Z 19005KT 24/15 A3004 RMK A01 T02370148  RH  060%=      5-min Rain = 0
KWOS 061310Z 19005KT 24/15 A3004 RMK A01 T02380149  RH  060%=      5-min Rain = 0
KWOS 061315Z 19006KT 24/15 A3004 RMK A01 T02390150  RH  060%=      5-min Rain = 0
KWOS 061320Z 19006KT 24/15 A3004 RMK A01 T02410151  RH  060%=      5-min Rain = 0
KWOS 061325Z 19007KT 24/15 A3004 RMK A01 T02440151  RH  059%=      5-min Rain = 0
KWOS 061330Z 19008KT 25/15 A3004 RMK A01 T02470151  RH  058%=      5-min Rain = 0
KWOS 061335Z 19008KT 25/15 A3004 RMK A01 T02510151  RH  056%=      5-min Rain = 0
KWOS 061340Z 19008KT 25/15 A3004 RMK A01 T02530153  RH  056%=      5-min Rain = 0
KWOS 061345Z 20011KT 25/15 A3004 RMK A01 T02520152  RH  056%=      5-min Rain = 0
KWOS 061350Z 20012G17KT 25/15 A3005 RMK A01 T02510152  RH  057%=      5-min Rain = 0
KWOS 061355Z 19011G16KT 25/15 A3005 RMK A01 T02530154  RH  057%=      5-min Rain = 0
KWOS 061400Z 19013KT 25/15 A3005 RMK A01 T02520152  RH  056%=      5-min Rain = 0
KWOS 061405Z 19013G19KT 25/15 A3005 RMK A01 T02520153  RH  057%=      5-min Rain = 0
KWOS 061410Z 20013G18KT 26/16 A3005 RMK A01 T02570155  RH  056%=      5-min Rain = 0
KWOS 061415Z 19013KT 26/16 A3005 RMK A01 T02620157  RH  055%=      5-min Rain = 0
KWOS 061420Z 20013G18KT 26/16 A3005 RMK A01 T02620157  RH  055%=      5-min Rain = 0
KWOS 061425Z 20014G19KT 26/16 A3005 RMK A01 T02610156  RH  055%=      5-min Rain = 0
KWOS 061430Z 20014KT 26/16 A3005 RMK A01 T02620157  RH  055%=      5-min Rain = 0
KWOS 061435Z 20012G17KT 26/16 A3005 RMK A01 T02630158  RH  055%=      5-min Rain = 0
KWOS 061440Z 20012G17KT 26/16 A3005 RMK A01 T02620158  RH  055%=      5-min Rain = 0
KWOS 061445Z 20013KT 26/16 A3005 RMK A01 T02620157  RH  055%=      5-min Rain = 0
KWOS 061450Z 20013KT 26/16 A3005 RMK A01 T02620157  RH  055%=      5-min Rain = 0
KWOS 061455Z 20013KT 26/16 A3005 RMK A01 T02620157  RH  055%=      5-min Rain = 0
KWOS 061500Z 20013KT 26/16 A3005 RMK A01 T02620157  RH  055%=      5-min Rain = 0
KWOS 061505Z 19012KT 26/16 A3005 RMK A01 T02630157  RH  054%=      5-min Rain = 0
KWOS 061510Z 19010KT 27/16 A3005 RMK A01 T02660159  RH  054%=      5-min Rain = 0
KWOS 061515Z 19012G17KT 27/16 A3005 RMK A01 T02670158  RH  054%=      5-min Rain = 0
KWOS 061520Z 19010KT 27/16 A3005 RMK A01 T02690160  RH  054%=      5-min Rain = 0
KWOS 061525Z 20012KT 27/16 A3005 RMK A01 T02670158  RH  054%=      5-min Rain = 0
KWOS 061530Z 20012KT 27/16 A3005 RMK A01 T02680156  RH  053%=      5-min Rain = 0
KWOS 061535Z 19012G18KT 27/16 A3005 RMK A01 T02680155  RH  052%=      5-min Rain = 0
KWOS 061540Z 19010KT 27/16 A3005 RMK A01 T02690158  RH  053%=      5-min Rain = 0
KWOS 061545Z 19011KT 27/16 A3005 RMK A01 T02690157  RH  053%=      5-min Rain = 0
KWOS 061550Z 19012KT 27/16 A3005 RMK A01 T02690156  RH  052%=      5-min Rain = 0
KWOS 061555Z 19013KT 27/16 A3005 RMK A01 T02680155  RH  052%=      5-min Rain = 0
KWOS 061600Z 19011KT 27/16 A3005 RMK A01 T02690156  RH  052%=      5-min Rain = 0
KWOS 061605Z 19012KT 28/16 A3005 RMK A01 T02750156  RH  051%=      5-min Rain = 0
KWOS 061610Z 19012KT 28/16 A3005 RMK A01 T02760155  RH  050%=      5-min Rain = 0
KWOS 061615Z 19012G17KT 27/15 A3006 RMK A01 T02730153  RH  050%=      5-min Rain = 0
KWOS 061620Z 19010KT 28/16 A3006 RMK A01 T02820157  RH  049%=      5-min Rain = 0
KWOS 061625Z 19011KT 29/15 A3006 RMK A01 T02870154  RH  047%=      5-min Rain = 0
KWOS 061630Z 19010G15KT 29/16 A3006 RMK A01 T02870156  RH  047%=      5-min Rain = 0
KWOS 061635Z 18012KT 29/16 A3006 RMK A01 T02940156  RH  045%=      5-min Rain = 0
KWOS 061640Z 19013KT 29/15 A3005 RMK A01 T02940154  RH  045%=      5-min Rain = 0
KWOS 061645Z 19012KT 29/15 A3005 RMK A01 T02940153  RH  044%=      5-min Rain = 0
KWOS 061650Z 18013KT 30/15 A3005 RMK A01 T02970151  RH  043%=      5-min Rain = 0
KWOS 061655Z 18011G17KT 30/15 A3005 RMK A01 T03020154  RH  042%=      5-min Rain = 0
KWOS 061700Z 18012KT 31/15 A3005 RMK A01 T03080150  RH  040%=      5-min Rain = 0
KWOS 061705Z 18011KT 31/15 A3005 RMK A01 T03120147  RH  038%=      5-min Rain = 0
KWOS 061710Z 17011KT 32/15 A3005 RMK A01 T03170145  RH  037%=      5-min Rain = 0
KWOS 061715Z 18012KT 32/14 A3005 RMK A01 T03200143  RH  036%=      5-min Rain = 0
KWOS 061720Z 17013G18KT 32/14 A3005 RMK A01 T03200139  RH  035%=      5-min Rain = 0
KWOS 061725Z 19012KT 32/14 A3005 RMK A01 T03210139  RH  035%=      5-min Rain = 0
KWOS 061730Z 19013G18KT 32/14 A3004 RMK A01 T03230137  RH  034%=      5-min Rain = 0
KWOS 061735Z 19012G19KT 33/14 A3004 RMK A01 T03280139  RH  033%=      5-min Rain = 0
KWOS 061740Z 18013KT 33/14 A3004 RMK A01 T03310137  RH  032%=      5-min Rain = 0
KWOS 061745Z 18014KT 33/13 A3004 RMK A01 T03310134  RH  032%=      5-min Rain = 0
KWOS 061750Z 18011G17KT 33/13 A3004 RMK A01 T03320133  RH  031%=      5-min Rain = 0
KWOS 061755Z 18013G18KT 34/13 A3004 RMK A01 T03370129  RH  030%=      5-min Rain = 0
KWOS 061800Z 18013G19KT 34/13 A3003 RMK A01 T03390130  RH  029%=      5-min Rain = 0
KWOS 061805Z 18015G21KT 34/13 A3003 RMK A01 T03420128  RH  029%=      5-min Rain = 0
KWOS 061810Z 18015G20KT 34/12 A3003 RMK A01 T03410121  RH  027%=      5-min Rain = 0
KWOS 061815Z 18013KT 34/13 A3003 RMK A01 T03410128  RH  029%=      5-min Rain = 0
KWOS 061820Z 19014G19KT 34/13 A3003 RMK A01 T03440125  RH  028%=      5-min Rain = 0
KWOS 061825Z 19012KT 34/13 A3003 RMK A01 T03430126  RH  028%=      5-min Rain = 0
KWOS 061830Z 19014G19KT 35/12 A3002 RMK A01 T03460123  RH  027%=      5-min Rain = 0
KWOS 061835Z 19012G18KT 35/13 A3002 RMK A01 T03510125  RH  027%=      5-min Rain = 0
KWOS 061840Z 18014G19KT 35/12 A3002 RMK A01 T03510122  RH  026%=      5-min Rain = 0
KWOS 061845Z 19013KT 35/12 A3002 RMK A01 T03520121  RH  026%=      5-min Rain = 0
KWOS 061850Z 18012G17KT 35/12 A3002 RMK A01 T03540118  RH  025%=      5-min Rain = 0
KWOS 061855Z 19012G18KT 36/12 A3002 RMK A01 T03570116  RH  024%=      5-min Rain = 0
KWOS 061900Z 19015G21KT 36/11 A3002 RMK A01 T03570105  RH  022%=      5-min Rain = 0
KWOS 061905Z 20014G20KT 36/11 A3001 RMK A01 T03580110  RH  023%=      5-min Rain = 0
KWOS 061910Z 19016KT 36/11 A3001 RMK A01 T03560105  RH  023%=      5-min Rain = 0
KWOS 061915Z 18014KT 36/10 A3001 RMK A01 T03590104  RH  022%=      5-min Rain = 0
KWOS 061920Z 18014KT 36/11 A3001 RMK A01 T03600105  RH  022%=      5-min Rain = 0
KWOS 061925Z 18015G20KT 37/10 A3001 RMK A01 T03650100  RH  021%=      5-min Rain = 0
KWOS 061930Z 19014KT 36/10 A3001 RMK A01 T03630100  RH  021%=      5-min Rain = 0
KWOS 061935Z 20014G21KT 36/11 A30 RMK A01 T03630107  RH  022%=      5-min Rain = 0
KWOS 061940Z 19014G19KT 36/10 A30 RMK A01 T03640102  RH  021%=      5-min Rain = 0
KWOS 061945Z 19012G17KT 37/11 A30 RMK A01 T03680105  RH  021%=      5-min Rain = 0
KWOS 061950Z 19014G22KT 37/10 A30 RMK A01 T03700097  RH  020%=      5-min Rain = 0
KWOS 061955Z 20015KT 37/10 A30 RMK A01 T03680095  RH  020%=      5-min Rain = 0
KWOS 062000Z 20012G21KT 37/09 A30 RMK A01 T03680094  RH  020%=      5-min Rain = 0
KWOS 062005Z 19013G20KT 37/09 A30 RMK A01 T03670089  RH  019%=      5-min Rain = 0
KWOS 062010Z 18014G19KT 36/08 A30 RMK A01 T03610084  RH  019%=      5-min Rain = 0
KWOS 062015Z 19014KT 36/09 A30 RMK A01 T03580088  RH  020%=      5-min Rain = 0
KWOS 062020Z 19011G16KT 36/09 A30 RMK A01 T03560087  RH  020%=      5-min Rain = 0
KWOS 062025Z 19011G16KT 36/09 A30 RMK A01 T03560088  RH  020%=      5-min Rain = 0
KWOS 062030Z 19010KT 35/09 A30 RMK A01 T03540086  RH  020%=      5-min Rain = 0
KWOS 062035Z 22010KT 36/09 A30 RMK A01 T03550090  RH  020%=      5-min Rain = 0
KWOS 062040Z 22009KT 35/09 A30 RMK A01 T03540087  RH  020%=      5-min Rain = 0
KWOS 062045Z 22008KT 35/09 A30 RMK A01 T03540092  RH  021%=      5-min Rain = 0
KWOS 062050Z 24009KT 35/09 A30 RMK A01 T03530093  RH  021%=      5-min Rain = 0
KWOS 062055Z 28005KT 34/11 A30 RMK A01 T03390107  RH  025%=      5-min Rain = 0
KWOS 062100Z 26005KT 34/11 A30 RMK A01 T03360110  RH  026%=      5-min Rain = 0
KWOS 062105Z 31004KT 33/11 A2999 RMK A01 T03340113  RH  027%=      5-min Rain = 0
KWOS 062110Z 35002KT 34/11 A2999 RMK A01 T03400113  RH  026%=      5-min Rain = 0
KWOS 062115Z 12003KT 34/11 A2999 RMK A01 T03440109  RH  025%=      5-min Rain = 0
KWOS 062120Z 20004KT 35/11 A2998 RMK A01 T03450112  RH  025%=      5-min Rain = 0
KWOS 062125Z 15004KT 35/10 A2997 RMK A01 T03510100  RH  022%=      5-min Rain = 0
KWOS 062130Z 14005KT 36/09 A2997 RMK A01 T03580094  RH  021%=      5-min Rain = 0
KWOS 062135Z 13007KT 36/09 A2997 RMK A01 T03620094  RH  020%=      5-min Rain = 0
KWOS 062140Z 14006KT 37/09 A2996 RMK A01 T03670093  RH  020%=      5-min Rain = 0
KWOS 062145Z 14004G9KT 37/10 A2996 RMK A01 T03730097  RH  019%=      5-min Rain = 0
KWOS 062150Z 14006KT 37/10 A2996 RMK A01 T03710095  RH  019%=      5-min Rain = 0
KWOS 062155Z 16010KT 37/10 A2995 RMK A01 T03720098  RH  020%=      5-min Rain = 0
KWOS 062200Z 16010KT 38/10 A2995 RMK A01 T03780098  RH  019%=      5-min Rain = 0
KWOS 062205Z 17012G19KT 38/09 A2995 RMK A01 T03800093  RH  018%=      5-min Rain = 0
KWOS 062210Z 17011G16KT 38/09 A2995 RMK A01 T03760089  RH  018%=      5-min Rain = 0
KWOS 062215Z 18012G18KT 37/09 A2995 RMK A01 T03730093  RH  019%=      5-min Rain = 0
KWOS 062220Z 18012KT 37/09 A2995 RMK A01 T03700090  RH  019%=      5-min Rain = 0
KWOS 062225Z 15011G17KT 37/09 A2995 RMK A01 T03650091  RH  019%=      5-min Rain = 0
KWOS 062230Z 17013G18KT 36/09 A2994 RMK A01 T03640094  RH  020%=      5-min Rain = 0
KWOS 062235Z 17014KT 36/09 A2994 RMK A01 T03620093  RH  020%=      5-min Rain = 0
KWOS 062240Z 17011G16KT 36/10 A2994 RMK A01 T03610095  RH  020%=      5-min Rain = 0
KWOS 062245Z 17010KT 36/09 A2994 RMK A01 T03610094  RH  020%=      5-min Rain = 0
KWOS 062250Z 17012G18KT 36/10 A2994 RMK A01 T03600097  RH  021%=      5-min Rain = 0
KWOS 062255Z 17009G14KT 36/10 A2994 RMK A01 T03600099  RH  021%=      5-min Rain = 0
KWOS 062300Z 17011KT 36/10 A2994 RMK A01 T03590102  RH  022%=      5-min Rain = 0
KWOS 062305Z 16011KT 36/10 A2994 RMK A01 T03580103  RH  022%=      5-min Rain = 0
KWOS 062310Z 16011G16KT 36/11 A2994 RMK A01 T03570105  RH  022%=      5-min Rain = 0
KWOS 062315Z 17010G15KT 36/11 A2994 RMK A01 T03560105  RH  023%=      5-min Rain = 0
KWOS 062320Z 16011G16KT 35/11 A2994 RMK A01 T03540108  RH  023%=      5-min Rain = 0
KWOS 062325Z 16011G18KT 35/11 A2994 RMK A01 T03520109  RH  024%=      5-min Rain = 0
KWOS 062330Z 17011G17KT 35/11 A2994 RMK A01 T03510108  RH  024%=      5-min Rain = 0
KWOS 062335Z 16011G17KT 35/11 A2994 RMK A01 T03500108  RH  024%=      5-min Rain = 0
KWOS 062340Z 16010G15KT 35/11 A2994 RMK A01 T03480109  RH  024%=      5-min Rain = 0
KWOS 062345Z 16011G16KT 35/11 A2994 RMK A01 T03470108  RH  024%=      5-min Rain = 0
KWOS 062350Z 16012G17KT 35/11 A2993 RMK A01 T03450110  RH  025%=      5-min Rain = 0
KWOS 062355Z 16011KT 34/11 A2993 RMK A01 T03440111  RH  025%=      5-min Rain = 0
KWOS 070000Z 16011KT 34/11 A2994 RMK A01 T03430110  RH  025%=      5-min Rain = 0
KWOS 070005Z 17010G15KT 34/11 A2994 RMK A01 T03420110  RH  025%=      5-min Rain = 0
KWOS 070010Z 17010KT 34/11 A2994 RMK A01 T03400111  RH  026%=      5-min Rain = 0
KWOS 070015Z 17009G14KT 34/11 A2995 RMK A01 T03390112  RH  026%=      5-min Rain = 0
KWOS 070020Z 18009KT 34/11 A2995 RMK A01 T03380114  RH  027%=      5-min Rain = 0
KWOS 070025Z 18010KT 34/12 A2996 RMK A01 T03360116  RH  027%=      5-min Rain = 0
KWOS 070030Z 21011KT 33/12 A2997 RMK A01 T03340117  RH  028%=      5-min Rain = 0
KWOS 070035Z 24013KT 33/12 A2997 RMK A01 T03300118  RH  029%=      5-min Rain = 0
KWOS 070040Z 24016G31KT 32/12 A2998 RMK A01 T03190121  RH  031%=      5-min Rain = 0
KWOS 070045Z 26014G27KT 31/12 A2998 RMK A01 T03090121  RH  033%=      5-min Rain = 0
KWOS 070050Z 27021G34KT 31/12 A2997 RMK A01 T03140122  RH  032%=      5-min Rain = 0
KWOS 070055Z 26020G30KT 31/13 A2998 RMK A01 T03120128  RH  034%=      5-min Rain = 0
KWOS 070100Z 26019G25KT 29/15 A2999 RMK A01 T02880149  RH  045%=      5-min Rain = 0
KWOS 070105Z 27016G24KT 27/16 A30 RMK A01 T02660164  RH  056%=      5-min Rain = 0
KWOS 070110Z 27017G22KT 26/17 A3001 RMK A01 T02570169  RH  061%=      5-min Rain = 0.01
KWOS 070115Z 28016G22KT 25/17 A3002 RMK A01 T02530165  RH  061%=      5-min Rain = 0
KWOS 070120Z 28015G26KT 25/17 A3003 RMK A01 T02490165  RH  062%=      5-min Rain = 0.01
KWOS 070125Z 27010KT 24/17 A3004 RMK A01 T02410173  RH  069%=      5-min Rain = 0
KWOS 070130Z 27007KT 24/18 A3004 RMK A01 T02410177  RH  071%=      5-min Rain = 0.01
KWOS 070135Z 29006KT 24/18 A3004 RMK A01 T02420175  RH  070%=      5-min Rain = 0
KWOS 070140Z 30004KT 24/18 A3004 RMK A01 T02440175  RH  069%=      5-min Rain = 0
KWOS 070145Z 32003KT 25/18 A3004 RMK A01 T02460175  RH  068%=      5-min Rain = 0
KWOS 070150Z 35003KT 25/18 A3003 RMK A01 T02450179  RH  070%=      5-min Rain = 0
KWOS 070155Z 35004KT 25/18 A3003 RMK A01 T02450179  RH  071%=      5-min Rain = 0
KWOS 070200Z 24003G12KT 24/18 A3004 RMK A01 T02440182  RH  072%=      5-min Rain = 0
KWOS 070205Z 20007G12KT 25/18 A3004 RMK A01 T02480177  RH  068%=      5-min Rain = 0
KWOS 070210Z 20008KT 25/17 A3004 RMK A01 T02520166  RH  062%=      5-min Rain = 0.01
KWOS 070215Z 20009KT 25/17 A3004 RMK A01 T02490166  RH  063%=      5-min Rain = 0
KWOS 070220Z 19007KT 25/17 A3003 RMK A01 T02490165  RH  062%=      5-min Rain = 0
KWOS 070225Z 16004KT 25/17 A3003 RMK A01 T02490166  RH  063%=      5-min Rain = 0
KWOS 070230Z 11004KT 25/17 A3003 RMK A01 T02470173  RH  067%=      5-min Rain = 0
KWOS 070235Z 10005KT 24/17 A3003 RMK A01 T02440174  RH  068%=      5-min Rain = 0
KWOS 070240Z 10005KT 25/17 A3002 RMK A01 T02450171  RH  067%=      5-min Rain = 0
KWOS 070245Z 04005KT 24/17 A3002 RMK A01 T02440169  RH  066%=      5-min Rain = 0
KWOS 070250Z 29003KT 26/15 A3002 RMK A01 T02560149  RH  054%=      5-min Rain = 0
KWOS 070255Z 23008G16KT 27/15 A3002 RMK A01 T02650145  RH  050%=      5-min Rain = 0
KWOS 070300Z 21010G16KT 27/14 A3001 RMK A01 T02700138  RH  046%=      5-min Rain = 0
KWOS 070305Z 19013G20KT 27/14 A30 RMK A01 T02660142  RH  048%=      5-min Rain = 0
KWOS 070310Z 20012KT 26/15 A30 RMK A01 T02620146  RH  051%=      5-min Rain = 0
KWOS 070315Z 19009KT 26/15 A30 RMK A01 T02560147  RH  053%=      5-min Rain = 0
KWOS 070320Z 18008KT 26/15 A30 RMK A01 T02560145  RH  052%=      5-min Rain = 0
KWOS 070325Z 19009KT 25/15 A30 RMK A01 T02510149  RH  056%=      5-min Rain = 0
KWOS 070330Z 19009KT 25/15 A30 RMK A01 T02510148  RH  055%=      5-min Rain = 0
KWOS 070335Z 19009KT 25/15 A30 RMK A01 T02510146  RH  055%=      5-min Rain = 0
KWOS 070340Z 18007KT 25/15 A2999 RMK A01 T02500146  RH  055%=      5-min Rain = 0
KWOS 070345Z 16007KT 25/15 A2999 RMK A01 T02510145  RH  054%=      5-min Rain = 0
KWOS 070350Z 18007KT 25/15 A30 RMK A01 T02490145  RH  055%=      5-min Rain = 0
KWOS 070355Z 19007KT 25/15 A30 RMK A01 T02480145  RH  055%=      5-min Rain = 0
KWOS 070400Z 17006KT 25/14 A30 RMK A01 T02460144  RH  055%=      5-min Rain = 0
KWOS 070405Z 17006KT 25/14 A30 RMK A01 T02480142  RH  054%=      5-min Rain = 0
KWOS 070410Z 18007KT 25/14 A30 RMK A01 T02470143  RH  055%=      5-min Rain = 0
KWOS 070415Z 19007KT 24/15 A30 RMK A01 T02420148  RH  058%=      5-min Rain = 0
KWOS 070420Z 19007KT 24/15 A30 RMK A01 T02390148  RH  060%=      5-min Rain = 0
KWOS 070425Z 18006KT 24/15 A30 RMK A01 T02380148  RH  060%=      5-min Rain = 0
KWOS 070430Z 17005KT 24/15 A30 RMK A01 T02400146  RH  058%=      5-min Rain = 0
KWOS 070435Z 16005KT 24/15 A2999 RMK A01 T02390150  RH  060%=      5-min Rain = 0
KWOS 070440Z 17006KT 24/15 A2999 RMK A01 T02370148  RH  060%=      5-min Rain = 0
KWOS 070445Z 18007KT 25/14 A30 RMK A01 T02470144  RH  055%=      5-min Rain = 0
KWOS 070450Z 18009KT 25/14 A30 RMK A01 T02540143  RH  052%=      5-min Rain = 0
KWOS 070455Z 18009KT 26/14 A2999 RMK A01 T02580142  RH  051%=      5-min Rain = 0

Page generated in 0.023 seconds.